createdAt,value
2023-05-01T00:04:06.903Z,3.28
2023-05-01T00:09:12.042Z,3.00
2023-05-01T00:14:15.379Z,2.70
2023-05-01T00:19:19.092Z,2.95
2023-05-01T00:24:24.246Z,2.80
2023-05-01T00:29:28.016Z,2.65
2023-05-01T00:34:31.362Z,2.75
2023-05-01T00:39:36.070Z,3.00
2023-05-01T00:44:39.463Z,3.20
2023-05-01T00:49:43.799Z,2.72
2023-05-01T00:54:52.137Z,2.92
2023-05-01T00:59:56.014Z,3.10
2023-05-01T01:04:59.799Z,2.95
2023-05-01T01:10:18.438Z,3.45
2023-05-01T01:15:30.293Z,2.72
2023-05-01T01:20:42.829Z,3.58
2023-05-01T01:26:07.382Z,2.70
2023-05-01T01:31:15.544Z,2.90
2023-05-01T01:36:23.987Z,3.38
2023-05-01T01:41:34.718Z,3.25
2023-05-01T01:46:42.536Z,3.40
2023-05-01T01:51:49.983Z,3.00
2023-05-01T01:56:55.188Z,3.10
2023-05-01T02:02:00.421Z,3.33
2023-05-01T02:07:07.174Z,3.47
2023-05-01T02:12:12.309Z,3.05
2023-05-01T02:17:17.488Z,3.75
2023-05-01T02:22:23.798Z,3.60
2023-05-01T02:27:33.238Z,3.63
2023-05-01T02:32:36.868Z,3.22
2023-05-01T02:37:41.800Z,3.42
2023-05-01T02:42:47.629Z,3.50
2023-05-01T02:47:54.358Z,3.58
2023-05-01T02:53:00.495Z,3.40
2023-05-01T02:58:17.117Z,2.90
2023-05-01T03:03:20.745Z,3.45
2023-05-01T03:08:25.656Z,3.55
2023-05-01T03:13:29.249Z,3.42
2023-05-01T03:18:32.974Z,3.75
2023-05-01T03:23:38.550Z,3.67
2023-05-01T03:28:41.939Z,3.10
2023-05-01T03:33:45.568Z,3.90
2023-05-01T03:38:52.026Z,3.40
2023-05-01T03:44:04.569Z,3.28
2023-05-01T03:49:12.819Z,3.95
2023-05-01T03:54:24.020Z,3.42
2023-05-01T03:59:47.772Z,3.50
2023-05-01T04:04:51.744Z,3.70
2023-05-01T04:09:57.110Z,3.75
2023-05-01T04:15:01.132Z,3.47
2023-05-01T04:20:06.306Z,3.97
2023-05-01T04:25:12.145Z,4.00
2023-05-01T04:30:17.059Z,3.45
2023-05-01T04:35:21.281Z,3.72
2023-05-01T04:40:26.448Z,3.60
2023-05-01T04:45:30.224Z,3.88
2023-05-01T04:50:33.877Z,3.47
2023-05-01T04:55:39.024Z,4.15
2023-05-01T05:00:51.676Z,4.07
2023-05-01T05:05:58.545Z,3.80
2023-05-01T05:11:03.531Z,3.75
2023-05-01T05:16:27.447Z,3.65
2023-05-01T05:21:31.699Z,4.07
2023-05-01T05:26:38.243Z,4.45
2023-05-01T05:31:42.618Z,5.13
2023-05-01T05:36:46.180Z,4.45
2023-05-01T05:41:53.907Z,3.92
2023-05-01T05:46:58.380Z,3.97
2023-05-01T05:52:07.400Z,4.32
2023-05-01T05:57:12.393Z,4.32
2023-05-01T06:02:20.676Z,4.20
2023-05-01T06:07:25.385Z,4.40
2023-05-01T06:12:31.605Z,4.43
2023-05-01T06:17:36.152Z,4.63
2023-05-01T06:22:39.777Z,4.40
2023-05-01T06:27:59.404Z,4.25
2023-05-01T06:33:03.629Z,4.28
2023-05-01T06:38:07.529Z,4.30
2023-05-01T06:43:12.634Z,4.50
2023-05-01T06:48:17.499Z,4.60
2023-05-01T06:53:21.153Z,5.22
2023-05-01T06:58:26.119Z,4.55
2023-05-01T07:03:29.740Z,5.18
2023-05-01T07:08:33.751Z,5.00
2023-05-01T07:13:38.706Z,4.57
2023-05-01T07:18:42.461Z,5.30
2023-05-01T07:23:46.370Z,4.78
2023-05-01T07:28:51.272Z,5.53
2023-05-01T07:33:54.873Z,5.10
2023-05-01T07:38:58.790Z,5.68
2023-05-01T07:44:03.692Z,6.10
2023-05-01T07:49:07.306Z,6.68
2023-05-01T07:54:10.934Z,5.30
2023-05-01T07:59:16.235Z,5.68
2023-05-01T08:04:22.851Z,5.93
2023-05-01T08:09:26.586Z,5.65
2023-05-01T08:14:32.141Z,5.85
2023-05-01T08:19:36.744Z,5.95
2023-05-01T08:24:41.946Z,6.05
2023-05-01T08:29:46.936Z,6.43
2023-05-01T08:34:50.532Z,6.43
2023-05-01T08:39:54.344Z,6.28
2023-05-01T08:45:01.352Z,6.60
2023-05-01T08:50:05.791Z,6.90
2023-05-01T08:55:10.041Z,6.82
2023-05-01T09:00:19.466Z,6.60
2023-05-01T09:05:23.722Z,6.38
2023-05-01T09:10:27.546Z,6.95
2023-05-01T09:15:32.529Z,6.15
2023-05-01T09:20:37.338Z,6.15
2023-05-01T09:25:41.463Z,6.43
2023-05-01T09:30:46.453Z,7.30
2023-05-01T09:35:50.571Z,7.22
2023-05-01T09:40:56.535Z,7.15
2023-05-01T09:46:06.936Z,7.50
2023-05-01T09:51:22.020Z,8.43
2023-05-01T09:56:25.664Z,9.13
2023-05-01T10:01:43.786Z,10.40
2023-05-01T10:06:47.522Z,7.75
2023-05-01T10:11:52.378Z,7.38
2023-05-01T10:16:57.976Z,10.15
2023-05-01T10:22:01.797Z,8.00
2023-05-01T10:27:06.817Z,8.07
2023-05-01T10:32:11.864Z,7.43
2023-05-01T10:37:19.993Z,8.30
2023-05-01T10:42:23.615Z,6.93
2023-05-01T10:47:45.955Z,8.32
2023-05-01T10:53:08.375Z,8.00
2023-05-01T10:58:14.014Z,7.93
2023-05-01T11:03:36.648Z,8.05
2023-05-01T11:08:40.939Z,8.73
2023-05-01T11:13:59.155Z,8.05
2023-05-01T11:19:02.668Z,8.38
2023-05-01T11:24:06.462Z,7.95
2023-05-01T11:29:12.012Z,7.57
2023-05-01T11:34:15.947Z,7.57
2023-05-01T11:39:19.618Z,7.13
2023-05-01T11:44:24.542Z,7.50
2023-05-01T11:49:29.188Z,7.28
2023-05-01T11:54:33.125Z,7.80
2023-05-01T11:59:38.142Z,6.80
2023-05-01T12:04:42.868Z,7.10
2023-05-01T12:09:46.767Z,6.88
2023-05-01T12:14:52.015Z,7.10
2023-05-01T12:19:55.513Z,5.95
2023-05-01T12:25:00.906Z,5.63
2023-05-01T12:30:06.127Z,5.80
2023-05-01T12:35:17.016Z,5.50
2023-05-01T12:40:23.000Z,6.15
2023-05-01T12:45:28.189Z,5.38
2023-05-01T12:50:37.917Z,5.13
2023-05-01T12:55:46.662Z,4.97
2023-05-01T13:00:52.461Z,5.15
2023-05-01T13:05:57.686Z,5.47
2023-05-01T13:11:02.964Z,5.70
2023-05-01T13:16:10.379Z,5.10
2023-05-01T13:21:16.320Z,5.63
2023-05-01T13:26:20.259Z,5.20
2023-05-01T13:31:25.236Z,5.20
2023-05-01T13:36:33.558Z,6.68
2023-05-01T13:41:37.166Z,6.25
2023-05-01T13:46:43.524Z,5.50
2023-05-01T13:51:47.452Z,5.82
2023-05-01T13:56:51.119Z,6.55
2023-05-01T14:01:56.151Z,6.93
2023-05-01T14:07:01.287Z,6.32
2023-05-01T14:12:04.876Z,5.70
2023-05-01T14:17:09.978Z,5.88
2023-05-01T14:22:13.805Z,7.35
2023-05-01T14:27:17.501Z,6.05
2023-05-01T14:32:22.688Z,5.70
2023-05-01T14:37:26.258Z,6.20
2023-05-01T14:42:31.557Z,5.88
2023-05-01T14:47:37.298Z,8.60
2023-05-01T14:52:41.175Z,7.75
2023-05-01T14:57:47.256Z,7.15
2023-05-01T15:02:52.577Z,7.97
2023-05-01T15:07:57.596Z,8.55
2023-05-01T15:13:01.205Z,10.73
2023-05-01T15:18:06.279Z,10.60
2023-05-01T15:23:10.479Z,12.57
2023-05-01T15:28:14.901Z,12.07
2023-05-01T15:33:20.105Z,12.57
2023-05-01T15:38:24.123Z,13.07
2023-05-01T15:43:27.737Z,11.73
2023-05-01T15:48:33.681Z,13.45
2023-05-01T15:53:37.205Z,13.15
2023-05-01T15:58:40.753Z,13.00
2023-05-01T16:03:47.825Z,14.10
2023-05-01T16:08:51.678Z,13.57
2023-05-01T16:13:56.026Z,13.43
2023-05-01T16:19:02.061Z,14.30
2023-05-01T16:24:06.473Z,17.27
2023-05-01T16:29:10.193Z,14.45
2023-05-01T16:34:15.774Z,15.95
2023-05-01T16:39:20.520Z,15.73
2023-05-01T16:44:24.388Z,15.88
2023-05-01T16:49:29.446Z,15.35
2023-05-01T16:54:35.876Z,16.17
2023-05-01T16:59:39.511Z,16.40
2023-05-01T17:04:44.477Z,17.00
2023-05-01T17:09:48.249Z,19.80
2023-05-01T17:14:53.806Z,18.15
2023-05-01T17:19:59.198Z,17.35
2023-05-01T17:25:04.505Z,22.42
2023-05-01T17:30:08.925Z,21.65
2023-05-01T17:35:14.026Z,23.35
2023-05-01T17:40:17.632Z,22.27
2023-05-01T17:45:21.691Z,22.75
2023-05-01T17:50:26.740Z,25.73
2023-05-01T17:55:30.457Z,24.92
2023-05-01T18:00:35.256Z,25.45
2023-05-01T18:05:40.422Z,25.45
2023-05-01T18:10:43.954Z,23.70
2023-05-01T18:15:49.384Z,22.80
2023-05-01T18:20:55.911Z,23.30
2023-05-01T18:25:59.889Z,22.77
2023-05-01T18:31:03.925Z,23.35
2023-05-01T18:36:10.701Z,22.88
2023-05-01T18:41:14.272Z,24.52
2023-05-01T18:46:17.927Z,23.60
2023-05-01T18:51:23.007Z,25.42
2023-05-01T18:56:27.618Z,24.73
2023-05-01T19:01:31.426Z,24.75
2023-05-01T19:06:38.305Z,24.98
2023-05-01T19:11:41.891Z,23.98
2023-05-01T19:16:45.703Z,24.40
2023-05-01T19:21:50.974Z,30.17
2023-05-01T19:26:54.544Z,32.38
2023-05-01T19:32:00.288Z,30.55
2023-05-01T19:37:05.409Z,27.83
2023-05-01T19:42:09.128Z,28.33
2023-05-01T19:47:12.838Z,26.83
2023-05-01T19:52:17.754Z,28.77
2023-05-01T19:57:21.250Z,28.60
2023-05-01T20:02:25.012Z,27.58
2023-05-01T20:07:30.533Z,23.70
2023-05-01T20:12:34.326Z,23.25
2023-05-01T20:17:37.991Z,23.75
2023-05-01T20:22:43.246Z,23.58
2023-05-01T20:27:46.853Z,38.67
2023-05-01T20:32:50.463Z,49.92
2023-05-01T20:37:55.582Z,21.60
2023-05-01T20:43:00.302Z,20.83
2023-05-01T20:48:04.080Z,17.77
2023-05-01T20:53:09.103Z,15.10
2023-05-01T20:58:12.744Z,15.75
2023-05-01T21:03:16.372Z,15.88
2023-05-01T21:08:21.531Z,18.85
2023-05-01T21:13:25.342Z,20.27
2023-05-01T21:18:29.680Z,21.95
